Time;durP1;ratioP1;P1;durP2;ratioP2;P2;SDS_P1;SDS_P2;PMS_P1;PMS_P2;Temp;Humidity;BMP_temperature;BMP_pressure;BME280_temperature;BME280_humidity;BME280_pressure;Samples;Min_cycle;Max_cycle;Signal;HPM_P1;HPM_P2
2022/09/05 00:00:13;;;;;;;17.00;7.00;;;;;;;14.98;67.41;99826.23;103907;1300;22678;-89
2022/09/05 00:03:25;;;;;;;13.40;7.20;;;;;;;14.96;67.72;99826.04;104036;1294;22707;-86
2022/09/05 00:06:23;;;;;;;13.70;7.20;;;;;;;14.94;67.64;99820.80;104255;1294;25601;-88
2022/09/05 00:10:18;;;;;;;16.20;7.80;;;;;;;14.84;67.75;99822.40;104100;1294;22587;-84
2022/09/05 00:13:09;;;;;;;14.10;7.20;;;;;;;14.81;67.94;99818.06;103193;1306;25624;-85
2022/09/05 00:16:46;;;;;;;11.80;6.60;;;;;;;14.76;67.90;99819.33;103186;1303;22920;-85
2022/09/05 00:20:24;;;;;;;10.60;6.30;;;;;;;14.68;67.89;99818.33;102882;1308;22675;-89
2022/09/05 00:24:17;;;;;;;10.90;6.10;;;;;;;14.58;67.98;99821.04;99320;1313;4859906;-87
2022/09/05 00:27:26;;;;;;;11.50;6.00;;;;;;;14.50;68.03;99819.15;102575;1316;22915;-87
2022/09/05 00:30:21;;;;;;;11.60;6.80;;;;;;;14.45;68.22;99817.05;102577;1316;22610;-88
2022/09/05 00:33:42;;;;;;;11.80;6.80;;;;;;;14.50;68.44;99816.70;102609;1317;25446;-87
2022/09/05 00:36:59;;;;;;;13.10;7.40;;;;;;;14.56;68.45;99814.92;102821;1313;24558;-88
2022/09/05 00:40:01;;;;;;;10.80;5.60;;;;;;;14.60;68.46;99813.59;102738;1313;22726;-86
2022/09/05 00:42:57;;;;;;;10.00;5.60;;;;;;;14.67;68.53;99815.56;102959;1306;22779;-86
2022/09/05 00:46:26;;;;;;;9.70;5.50;;;;;;;14.75;68.51;99812.75;103269;1305;22770;-86
2022/09/05 00:49:39;;;;;;;13.10;5.80;;;;;;;14.80;68.52;99816.47;103133;1307;22699;-87
2022/09/05 00:53:05;;;;;;;16.20;5.70;;;;;;;14.86;68.67;99820.36;103281;1307;24286;-88
2022/09/05 00:56:25;;;;;;;12.40;6.50;;;;;;;14.95;68.72;99818.05;103016;1308;22694;-86
2022/09/05 00:59:43;;;;;;;12.20;6.20;;;;;;;14.97;68.59;99814.48;103883;1299;22958;-87
2022/09/05 01:03:38;;;;;;;;;;;;;;;;;;;;;
2022/09/05 01:07:16;;;;;;;12.10;5.50;;;;;;;14.88;68.45;99815.66;104060;1299;22726;-87
2022/09/05 01:10:37;;;;;;;10.30;5.50;;;;;;;14.85;68.65;99816.86;104097;1297;25540;-87
2022/09/05 01:14:24;;;;;;;9.90;5.50;;;;;;;14.89;68.84;99813.07;104024;1297;22733;-88
2022/09/05 01:18:06;;;;;;;11.30;5.30;;;;;;;14.93;68.91;99819.60;104083;1299;25269;-89
2022/09/05 01:22:11;;;;;;;11.70;5.70;;;;;;;14.96;68.88;99820.11;104065;1297;22594;-88
2022/09/05 01:25:27;;;;;;;9.20;4.50;;;;;;;14.98;68.90;99815.61;104215;1290;23082;-91
2022/09/05 01:28:30;;;;;;;10.50;5.00;;;;;;;15.02;68.93;99813.54;104482;1290;24351;-92
2022/09/05 01:31:58;;;;;;;10.30;4.90;;;;;;;15.06;68.96;99813.98;105090;1279;24031;-88
2022/09/05 01:35:32;;;;;;;10.00;4.90;;;;;;;15.00;68.85;99815.83;105890;1279;22493;-88
2022/09/05 01:38:48;;;;;;;11.00;5.00;;;;;;;14.87;68.89;99821.48;105853;1279;22770;-90
2022/09/05 01:42:07;;;;;;;9.80;5.30;;;;;;;14.84;69.04;99821.58;105787;1281;22567;-87
2022/09/05 01:45:41;;;;;;;14.80;4.90;;;;;;;14.90;69.16;99822.94;105783;1279;22573;-90
2022/09/05 01:49:39;;;;;;;11.40;5.00;;;;;;;14.97;69.20;99823.48;105551;1281;24313;-91
2022/09/05 01:53:25;;;;;;;;;;;;;;;;;;;;;
2022/09/05 01:56:58;;;;;;;;;;;;;;;;;;;;;
2022/09/05 02:00:48;;;;;;;10.70;5.20;;;;;;;14.97;69.14;99821.80;105673;1279;22632;-88
2022/09/05 02:04:43;;;;;;;10.10;5.20;;;;;;;14.85;69.24;99821.45;105661;1281;25363;-86
2022/09/05 02:08:13;;;;;;;13.70;5.90;;;;;;;14.77;69.24;99824.83;105736;1279;25344;-86
2022/09/05 02:11:30;;;;;;;11.50;5.80;;;;;;;14.75;69.21;99823.52;105699;1279;22763;-90
2022/09/05 02:14:47;;;;;;;10.30;5.10;;;;;;;14.76;69.31;99826.31;105789;1279;22592;-89
2022/09/05 02:18:18;;;;;;;10.20;4.80;;;;;;;14.76;69.35;99820.52;105437;1279;25472;-86
2022/09/05 02:21:38;;;;;;;10.50;5.10;;;;;;;14.74;69.25;99819.45;105466;1281;25748;-87
2022/09/05 02:25:04;;;;;;;19.10;5.40;;;;;;;14.66;69.30;99822.43;105820;1281;24319;-88
2022/09/05 02:28:26;;;;;;;;;;;;;;;;;;;;;
2022/09/05 02:32:10;;;;;;;10.00;5.20;;;;;;;14.47;69.38;99835.84;105843;1279;22557;-86
2022/09/05 02:35:52;;;;;;;;;;;;;;;;;;;;;
2022/09/05 02:39:08;;;;;;;10.40;4.60;;;;;;;14.37;69.65;99834.66;105705;1281;24213;-87
2022/09/05 02:42:41;;;;;;;11.80;5.40;;;;;;;14.38;69.69;99834.76;105802;1279;22781;-88
2022/09/05 02:46:24;;;;;;;13.00;5.20;;;;;;;14.41;69.76;99835.04;105100;1287;23963;-87
2022/09/05 02:50:18;;;;;;;13.30;5.50;;;;;;;14.42;69.82;99836.23;105094;1287;25398;-87
2022/09/05 02:54:01;;;;;;;;;;;;;;;;;;;;;
2022/09/05 02:57:54;;;;;;;;;;;;;;;;;;;;;
2022/09/05 03:02:03;;;;;;;;;;;;;;;;;;;;;
2022/09/05 03:05:27;;;;;;;11.70;5.60;;;;;;;14.36;69.77;99834.04;105168;1287;22600;-88
2022/09/05 09:17:48;;;;;;;11.90;5.70;;;;;;;21.25;68.26;99915.61;106293;1276;22825;-88
2022/09/05 09:21:02;;;;;;;15.80;8.30;;;;;;;21.43;68.12;99911.67;106074;1277;22544;-91
2022/09/05 09:24:16;;;;;;;10.70;5.60;;;;;;;21.33;67.62;99915.38;106329;1276;25400;-90
2022/09/05 09:27:27;;;;;;;16.90;7.90;;;;;;;21.20;67.82;99914.13;105986;1276;23153;-90
2022/09/05 09:30:27;;;;;;;12.00;5.30;;;;;;;21.27;68.07;99914.54;106281;1276;22547;-93
2022/09/05 09:33:31;;;;;;;8.60;5.20;;;;;;;21.34;67.91;99908.80;105920;1276;22560;-90
2022/09/05 09:36:41;;;;;;;9.60;4.60;;;;;;;21.33;67.67;99909.41;105858;1280;23984;-90
2022/09/05 09:40:11;;;;;;;10.30;4.70;;;;;;;21.46;67.45;99910.21;106167;1278;22496;-89
2022/09/05 09:43:39;;;;;;;11.50;4.80;;;;;;;21.37;67.15;99908.62;106324;1276;22704;-90
2022/09/05 09:46:50;;;;;;;8.70;4.20;;;;;;;21.21;67.26;99910.58;106176;1277;22551;-90
2022/09/05 09:50:31;;;;;;;9.80;4.60;;;;;;;21.13;67.32;99908.40;105918;1276;24203;-90
2022/09/05 09:53:32;;;;;;;9.00;5.10;;;;;;;21.20;67.40;99903.88;106077;1277;24315;-89
2022/09/05 09:57:16;;;;;;;10.70;4.80;;;;;;;21.69;67.57;99901.99;106051;1277;22769;-89
2022/09/05 10:00:21;;;;;;;10.00;3.60;;;;;;;22.01;66.98;99900.64;105903;1279;24186;-90
2022/09/05 10:03:37;;;;;;;10.10;3.70;;;;;;;22.32;66.66;99903.42;106158;1279;22619;-89
2022/09/05 10:06:59;;;;;;;9.80;4.30;;;;;;;22.53;66.52;99896.51;106297;1278;23401;-90
2022/09/05 10:10:43;;;;;;;8.00;4.00;;;;;;;22.78;66.74;99893.14;106172;1278;22550;-88
2022/09/05 10:18:21;;;;;;;8.80;3.90;;;;;;;23.13;66.06;99893.63;106047;1276;23332;-91
2022/09/05 10:21:48;;;;;;;11.00;4.40;;;;;;;23.01;65.73;99890.48;105755;1279;22541;-89
2022/09/05 10:24:56;;;;;;;9.20;4.70;;;;;;;22.89;66.35;99886.94;105926;1277;25565;-89
2022/09/05 10:28:11;;;;;;;9.70;4.00;;;;;;;23.12;66.26;99885.48;105960;1277;25534;-90
2022/09/05 10:31:36;;;;;;;9.50;4.30;;;;;;;23.46;66.05;99881.56;106271;1278;22692;-89
2022/09/05 10:34:56;;;;;;;10.90;4.70;;;;;;;23.73;65.88;99877.91;105981;1277;22547;-85
2022/09/05 10:38:16;;;;;;;11.40;4.90;;;;;;;23.82;65.35;99875.02;105192;1284;24231;-85
2022/09/05 10:41:19;;;;;;;12.40;4.80;;;;;;;23.71;65.01;99881.04;104590;1291;22770;-83
2022/09/05 10:44:51;;;;;;;8.90;4.10;;;;;;;23.68;65.18;99874.55;104578;1291;24228;-89
2022/09/05 10:48:22;;;;;;;10.40;4.60;;;;;;;23.59;64.79;99875.44;104647;1290;26503;-89
2022/09/05 10:52:15;;;;;;;10.50;4.50;;;;;;;23.55;65.12;99870.75;104607;1291;22656;-87
2022/09/05 10:55:55;;;;;;;10.40;4.40;;;;;;;23.58;64.73;99865.77;104182;1297;22687;-90
2022/09/05 10:59:27;;;;;;;9.90;4.20;;;;;;;23.60;64.61;99863.35;104109;1297;24346;-86
2022/09/05 11:02:24;;;;;;;14.50;4.30;;;;;;;23.24;64.14;99866.50;104020;1297;22858;-86
2022/09/05 11:06:31;;;;;;;8.70;4.50;;;;;;;23.22;64.05;99866.73;104313;1297;24372;-89
2022/09/05 11:09:51;;;;;;;8.90;4.40;;;;;;;23.28;64.16;99862.27;104239;1297;24266;-90
2022/09/05 11:17:14;;;;;;;21.30;13.50;;;;;;;23.35;63.94;99865.06;103999;1297;24790;-90
2022/09/05 11:20:59;;;;;;;10.70;6.20;;;;;;;23.46;63.67;99863.64;104602;1290;22592;-84
2022/09/05 11:24:03;;;;;;;18.00;10.40;;;;;;;23.35;63.49;99859.20;104154;1297;23592;-86
2022/09/05 11:44:22;;;;;;;34.10;21.40;;;;;;;23.71;63.29;99841.55;106182;1276;22575;-88
2022/09/05 11:52:13;;;;;;;9.40;4.60;;;;;;;23.87;62.52;99846.10;105555;1284;22724;-87
2022/09/05 11:55:46;;;;;;;12.80;5.60;;;;;;;23.99;62.78;99840.13;105432;1284;22573;-88
2022/09/05 11:59:14;;;;;;;10.90;5.10;;;;;;;24.20;62.47;99842.92;105540;1285;22602;-89
2022/09/05 12:02:54;;;;;;;8.30;3.70;;;;;;;24.32;62.37;99844.40;105215;1284;23028;-86
2022/09/05 12:06:16;;;;;;;9.50;4.10;;;;;;;24.50;62.15;99839.59;105370;1285;25437;-87
2022/09/05 12:09:35;;;;;;;8.40;4.40;;;;;;;24.62;61.94;99838.42;105358;1284;22699;-90
2022/09/05 12:12:54;;;;;;;9.00;4.00;;;;;;;24.78;61.87;99837.88;105464;1285;26770;-86
2022/09/05 12:15:48;;;;;;;18.00;8.50;;;;;;;24.78;61.55;99832.75;105365;1284;22653;-88
2022/09/05 12:18:43;;;;;;;8.50;3.80;;;;;;;24.90;61.63;99839.39;105308;1284;22678;-89
2022/09/05 12:22:01;;;;;;;16.10;9.00;;;;;;;25.03;61.40;99832.66;105548;1284;24223;-84
2022/09/05 12:25:06;;;;;;;43.60;26.50;;;;;;;25.06;61.05;99837.67;104186;1285;1605434;-86
2022/09/05 12:27:58;;;;;;;44.40;27.70;;;;;;;24.76;60.72;99839.06;106121;1277;25408;-86
2022/09/05 12:30:49;;;;;;;32.90;20.40;;;;;;;24.38;60.69;99834.27;106021;1278;22984;-89
2022/09/05 12:33:42;;;;;;;16.30;8.70;;;;;;;24.24;60.85;99831.13;106051;1277;26479;-84
2022/09/05 12:36:46;;;;;;;29.00;15.50;;;;;;;24.38;61.10;99827.42;106048;1277;25210;-82
2022/09/05 12:39:56;;;;;;;11.80;4.40;;;;;;;24.59;60.74;99829.42;106020;1277;22730;-89
2022/09/05 12:43:06;;;;;;;30.70;19.00;;;;;;;24.61;60.37;99825.80;105991;1277;22627;-88
2022/09/05 12:46:06;;;;;;;12.40;6.90;;;;;;;24.65;60.69;99822.52;106081;1277;25410;-89
2022/09/05 12:49:09;;;;;;;22.00;11.50;;;;;;;24.90;60.69;99816.15;105980;1277;22706;-88
2022/09/05 12:52:04;;;;;;;8.60;3.50;;;;;;;25.03;60.40;99814.29;106235;1277;23030;-90
2022/09/05 12:55:02;;;;;;;6.20;3.10;;;;;;;24.88;59.90;99812.63;106185;1277;25412;-88
2022/09/05 12:58:13;;;;;;;7.50;3.30;;;;;;;24.53;59.67;99813.02;106183;1277;22524;-90
2022/09/05 13:01:16;;;;;;;9.30;3.50;;;;;;;24.29;59.98;99811.31;106007;1277;25392;-89
2022/09/05 13:04:20;;;;;;;8.70;3.40;;;;;;;24.26;60.14;99805.30;106263;1277;22549;-89
2022/09/05 13:07:13;;;;;;;15.80;8.00;;;;;;;24.29;59.83;99799.64;106033;1277;24229;-82
2022/09/05 13:10:34;;;;;;;;;;;;;;;;;;;;;
2022/09/05 13:13:49;;;;;;;9.30;4.40;;;;;;;24.28;59.42;99796.38;106284;1276;22569;-92
2022/09/05 13:16:54;;;;;;;10.60;5.60;;;;;;;24.20;59.52;99793.09;106177;1276;25567;-90
2022/09/05 13:19:56;;;;;;;11.70;6.90;;;;;;;24.28;59.69;99791.60;106128;1278;25630;-89
2022/09/05 13:22:49;;;;;;;9.30;3.40;;;;;;;24.40;59.22;99790.19;105865;1278;22575;-90
2022/09/05 13:25:35;;;;;;;22.50;11.70;;;;;;;24.20;58.89;99788.59;106001;1277;22686;-82
2022/09/05 13:28:29;;;;;;;16.90;10.60;;;;;;;23.78;58.39;99792.23;105996;1277;25359;-89
2022/09/05 13:31:59;;;;;;;11.80;5.60;;;;;;;23.36;58.56;99790.48;105998;1277;25432;-89
2022/09/05 13:35:03;;;;;;;10.00;4.90;;;;;;;23.33;59.15;99792.94;106543;1277;22710;-83
2022/09/05 13:38:07;;;;;;;7.80;3.30;;;;;;;23.42;58.67;99792.69;106288;1277;24287;-92
2022/09/05 13:41:26;;;;;;;7.20;3.20;;;;;;;23.29;58.90;99787.27;106869;1276;24426;-92
2022/09/05 13:44:21;;;;;;;7.30;3.50;;;;;;;23.05;58.56;99789.27;106630;1276;25460;-91
2022/09/05 13:47:39;;;;;;;7.40;3.10;;;;;;;22.91;58.76;99789.17;106502;1276;25449;-91
2022/09/05 13:50:53;;;;;;;9.90;4.00;;;;;;;22.86;58.66;99782.98;106800;1277;24078;-91
2022/09/05 13:53:50;;;;;;;15.60;8.10;;;;;;;22.84;58.91;99780.91;106378;1276;24281;-87
2022/09/05 13:57:03;;;;;;;24.00;13.50;;;;;;;22.80;58.46;99778.95;106168;1277;22600;-92
2022/09/05 14:00:36;;;;;;;21.50;15.20;;;;;;;22.77;58.63;99776.56;106959;1278;22992;-88
2022/09/05 14:04:11;;;;;;;8.50;4.00;;;;;;;22.76;58.29;99772.00;106225;1277;22563;-89
2022/09/05 14:07:24;;;;;;;12.20;4.30;;;;;;;22.80;58.53;99768.08;106047;1277;25475;-88
2022/09/05 14:10:41;;;;;;;6.40;2.80;;;;;;;22.89;58.34;99762.52;106142;1278;24188;-91
2022/09/05 14:13:57;;;;;;;35.10;25.10;;;;;;;22.99;58.53;99764.92;107004;1277;22570;-87
2022/09/05 14:17:08;;;;;;;19.20;13.90;;;;;;;23.05;58.27;99759.60;106325;1277;23038;-90
2022/09/05 14:23:26;;;;;;;14.00;9.60;;;;;;;23.18;58.00;99760.12;106415;1277;23938;-85
2022/09/05 14:26:37;;;;;;;50.60;33.00;;;;;;;23.15;57.91;99759.61;105994;1277;23161;-90
2022/09/05 14:29:50;;;;;;;20.00;9.80;;;;;;;23.13;58.19;99754.23;106088;1278;22884;-88
2022/09/05 14:33:03;;;;;;;;;;;;;;;;;;;;;
2022/09/05 14:35:48;;;;;;;12.60;5.50;;;;;;;23.00;57.78;99753.89;105894;1281;22703;-89
2022/09/05 14:38:53;;;;;;;9.00;3.90;;;;;;;22.90;57.86;99751.55;106020;1277;25332;-86
2022/09/05 14:42:24;;;;;;;9.10;3.30;;;;;;;22.84;57.73;99751.84;106023;1278;22566;-83
2022/09/05 14:45:31;;;;;;;7.30;2.60;;;;;;;22.87;57.63;99752.02;105816;1278;22739;-88
2022/09/05 14:48:20;;;;;;;9.30;2.90;;;;;;;23.17;57.87;99747.04;105916;1278;24226;-90
2022/09/05 14:51:01;;;;;;;11.40;6.30;;;;;;;23.40;57.47;99741.84;105946;1277;25553;-89
2022/09/05 14:53:30;;;;;;;21.30;14.40;;;;;;;23.52;57.86;99733.89;106137;1277;23279;-86
2022/09/05 14:56:14;;;;;;;10.70;4.40;;;;;;;23.55;57.26;99732.86;106427;1279;24307;-86
2022/09/05 14:58:58;;;;;;;7.70;2.70;;;;;;;23.39;57.00;99735.83;106453;1280;25926;-91
2022/09/05 15:01:37;;;;;;;14.00;7.50;;;;;;;23.06;56.99;99733.34;106075;1277;23940;-87
2022/09/05 15:04:17;;;;;;;12.40;6.40;;;;;;;22.74;56.96;99740.42;105826;1280;22585;-84
2022/09/05 15:07:01;;;;;;;10.90;4.40;;;;;;;22.49;57.01;99741.38;105983;1278;22534;-90
2022/09/05 15:09:44;;;;;;;10.10;5.40;;;;;;;22.32;57.24;99750.67;105974;1278;24269;-88
2022/09/05 15:12:28;;;;;;;11.50;3.70;;;;;;;22.18;57.09;99751.92;105813;1281;22564;-90
2022/09/05 15:15:33;;;;;;;10.40;5.00;;;;;;;22.07;57.43;99752.21;105944;1278;22746;-89
2022/09/05 15:18:38;;;;;;;8.50;4.60;;;;;;;22.04;57.17;99752.10;106036;1278;22694;-92
2022/09/05 15:22:30;;;;;;;11.50;4.50;;;;;;;21.98;57.21;99746.06;105952;1277;25472;-88
2022/09/05 15:25:19;;;;;;;40.70;22.50;;;;;;;21.91;57.49;99746.02;105982;1278;24312;-92
2022/09/05 15:28:08;;;;;;;33.10;17.90;;;;;;;21.85;57.37;99742.61;105576;1281;22713;-92
2022/09/05 15:36:05;;;;;;;;;;;;;;;;;;;;;
2022/09/05 15:40:06;;;;;;;;;;;;;;;;;;;;;
2022/09/05 15:51:56;;;;;;;95.00;41.40;;;;;;;21.14;57.23;99743.86;105637;1284;22565;-87
2022/09/05 15:59:46;;;;;;;74.10;40.70;;;;;;;21.03;57.18;99740.66;105033;1289;22686;-86
2022/09/05 16:02:37;;;;;;;34.20;16.50;;;;;;;20.97;57.32;99732.63;104948;1290;24255;-83
2022/09/05 16:05:26;;;;;;;27.80;11.80;;;;;;;20.97;57.48;99739.27;104518;1291;25591;-83
2022/09/05 16:08:03;;;;;;;19.60;8.10;;;;;;;20.94;57.17;99736.21;104782;1289;23279;-81
2022/09/05 16:11:16;;;;;;;21.30;10.40;;;;;;;20.89;57.32;99739.04;105381;1290;25376;-84
2022/09/05 16:13:54;;;;;;;58.80;33.70;;;;;;;20.86;57.42;99734.84;105052;1288;25434;-84
2022/09/05 16:16:32;;;;;;;53.10;24.40;;;;;;;20.84;57.38;99732.71;104969;1290;23932;-83
2022/09/05 16:19:07;;;;;;;32.20;15.30;;;;;;;20.82;57.50;99731.63;104664;1290;25669;-82
2022/09/05 16:21:48;;;;;;;20.00;9.30;;;;;;;20.80;57.36;99730.02;104992;1289;22866;-86
2022/09/05 16:24:49;;;;;;;14.00;5.70;;;;;;;20.74;57.36;99729.33;104917;1284;25355;-82
2022/09/05 16:27:50;;;;;;;9.20;3.40;;;;;;;20.65;57.27;99730.48;105697;1284;23923;-82
2022/09/05 16:30:35;;;;;;;9.30;3.70;;;;;;;20.52;57.07;99733.45;105211;1284;22705;-85
2022/09/05 16:33:13;;;;;;;8.10;3.70;;;;;;;20.41;57.20;99730.06;105404;1284;23927;-86
2022/09/05 16:35:53;;;;;;;23.40;9.50;;;;;;;20.35;57.18;99733.42;105764;1278;23901;-82
2022/09/05 16:38:23;;;;;;;71.70;32.40;;;;;;;20.29;57.11;99730.06;106083;1278;22563;-87
2022/09/05 16:40:56;;;;;;;94.40;45.10;;;;;;;20.24;57.36;99722.96;105956;1277;25507;-82
2022/09/05 16:43:28;;;;;;;104.50;49.30;;;;;;;20.21;57.33;99722.70;105832;1281;22897;-83
2022/09/05 16:46:22;;;;;;;81.90;37.00;;;;;;;20.19;57.39;99721.44;105816;1278;22791;-81
2022/09/05 16:49:17;;;;;;;86.00;40.50;;;;;;;20.19;57.55;99722.21;105774;1281;22796;-82
2022/09/05 16:51:49;;;;;;;177.40;83.90;;;;;;;20.16;57.77;99713.58;105961;1278;25411;-85
2022/09/05 16:54:52;;;;;;;141.70;74.70;;;;;;;20.12;57.67;99712.55;105934;1278;24205;-82
2022/09/05 16:57:27;;;;;;;76.70;44.80;;;;;;;20.03;57.44;99715.69;105993;1277;22566;-83
2022/09/05 16:59:56;;;;;;;43.80;26.40;;;;;;;19.95;57.83;99713.98;105787;1277;24399;-85
2022/09/05 17:02:40;;;;;;;42.80;24.60;;;;;;;19.88;57.85;99713.75;105930;1278;24296;-86
2022/09/05 17:05:34;;;;;;;27.00;14.20;;;;;;;19.80;57.57;99717.97;106027;1277;25232;-83
2022/09/05 17:08:26;;;;;;;24.70;10.60;;;;;;;19.69;57.95;99719.62;105846;1277;22704;-88
2022/09/05 17:11:04;;;;;;;20.60;10.10;;;;;;;19.59;57.67;99716.06;106040;1277;22550;-84
2022/09/05 17:13:44;;;;;;;25.10;10.40;;;;;;;19.52;57.73;99718.75;105789;1278;25556;-85
2022/09/05 17:16:47;;;;;;;52.00;11.00;;;;;;;19.45;57.75;99719.34;105900;1278;25245;-83
2022/09/05 17:19:20;;;;;;;22.10;7.60;;;;;;;19.37;57.71;99720.95;106043;1278;22528;-84
2022/09/05 17:22:11;;;;;;;23.60;8.70;;;;;;;19.33;57.86;99720.86;105905;1277;25340;-84
2022/09/05 17:24:43;;;;;;;23.90;10.50;;;;;;;19.28;58.04;99720.59;106051;1277;25477;-93
2022/09/05 17:27:23;;;;;;;20.60;10.00;;;;;;;19.22;58.03;99724.44;105936;1277;24209;-89
2022/09/05 17:30:00;;;;;;;17.40;8.00;;;;;;;19.13;57.77;99726.95;105764;1280;24209;-88
2022/09/05 17:32:30;;;;;;;15.20;6.60;;;;;;;19.01;57.82;99727.36;105804;1277;24353;-89
2022/09/05 17:34:57;;;;;;;11.60;5.30;;;;;;;18.89;57.98;99723.31;106060;1277;24304;-88
2022/09/05 17:37:35;;;;;;;11.80;5.60;;;;;;;18.81;58.05;99720.66;106161;1277;25526;-87
2022/09/05 17:40:17;;;;;;;12.90;5.60;;;;;;;18.75;58.10;99725.91;105989;1277;25233;-88
2022/09/05 17:43:12;;;;;;;12.60;6.70;;;;;;;18.69;58.12;99724.14;105942;1277;23962;-89
2022/09/05 17:46:24;;;;;;;15.20;7.10;;;;;;;18.63;58.25;99720.15;106033;1277;22538;-89
2022/09/05 17:49:04;;;;;;;18.00;7.80;;;;;;;18.56;58.54;99717.91;105975;1277;22537;-92
2022/09/05 17:51:34;;;;;;;16.40;8.00;;;;;;;18.51;58.59;99717.73;105903;1277;22563;-88
2022/09/05 17:54:06;;;;;;;12.30;5.70;;;;;;;18.46;58.39;99716.92;106073;1277;22558;-89
2022/09/05 17:56:48;;;;;;;13.80;5.20;;;;;;;18.41;58.24;99715.95;105876;1277;23065;-87
2022/09/05 17:59:30;;;;;;;14.20;5.10;;;;;;;18.40;58.44;99718.08;105988;1277;24274;-89
2022/09/05 18:02:15;;;;;;;10.80;4.70;;;;;;;18.36;58.43;99722.02;106015;1277;22551;-88
2022/09/05 18:04:47;;;;;;;11.90;4.50;;;;;;;18.34;58.54;99722.40;106079;1280;22795;-91
2022/09/05 18:07:35;;;;;;;8.40;3.60;;;;;;;18.32;58.50;99726.21;105901;1277;24012;-90
2022/09/05 18:10:14;;;;;;;8.50;3.70;;;;;;;18.26;58.28;99726.59;106077;1277;25548;-90
2022/09/05 18:12:49;;;;;;;8.90;3.60;;;;;;;18.17;58.35;99729.55;106126;1277;22543;-90
2022/09/05 18:15:30;;;;;;;9.90;3.80;;;;;;;18.03;58.08;99733.42;105823;1280;24056;-89
2022/09/05 18:18:08;;;;;;;8.90;3.90;;;;;;;17.90;58.13;99733.91;106157;1277;26693;-88
2022/09/05 18:21:03;;;;;;;11.60;4.00;;;;;;;17.79;58.28;99734.31;105926;1278;23844;-88
2022/09/05 18:23:39;;;;;;;9.90;4.20;;;;;;;17.66;58.22;99737.30;105822;1278;22621;-89
2022/09/05 18:26:23;;;;;;;9.40;4.40;;;;;;;17.57;58.70;99735.77;105842;1277;22806;-90
2022/09/05 18:29:16;;;;;;;12.90;4.70;;;;;;;17.52;58.75;99732.04;105815;1281;22566;-90
2022/09/05 18:32:10;;;;;;;11.90;5.00;;;;;;;17.47;58.76;99742.27;106069;1278;23367;-89
2022/09/05 18:35:29;;;;;;;14.40;5.10;;;;;;;17.42;58.83;99740.75;105775;1277;22725;-90
2022/09/05 18:38:02;;;;;;;10.80;4.60;;;;;;;17.39;58.97;99741.48;104946;1287;23784;-91
2022/09/05 18:41:13;;;;;;;10.10;4.10;;;;;;;17.38;58.92;99735.45;105004;1287;25609;-88
2022/09/05 18:43:53;;;;;;;12.60;4.60;;;;;;;17.39;59.01;99737.37;104919;1287;24228;-89
2022/09/05 18:46:35;;;;;;;9.50;4.00;;;;;;;17.38;58.90;99738.23;105057;1287;22819;-90
2022/09/05 18:49:21;;;;;;;12.30;5.70;;;;;;;17.36;59.09;99734.23;105006;1287;22569;-92
2022/09/05 18:52:06;;;;;;;15.90;6.80;;;;;;;17.38;59.10;99731.41;105101;1287;25539;-89
2022/09/05 18:54:37;;;;;;;16.90;7.60;;;;;;;17.37;59.01;99733.44;104733;1287;22649;-90
2022/09/05 18:57:11;;;;;;;20.30;9.30;;;;;;;17.31;58.92;99733.92;105056;1288;22717;-91
2022/09/05 19:00:07;;;;;;;21.80;10.30;;;;;;;17.25;59.10;99737.17;104811;1287;25407;-90
2022/09/05 19:02:56;;;;;;;25.40;11.00;;;;;;;17.21;59.16;99736.70;105204;1287;22564;-87
2022/09/05 19:05:57;;;;;;;21.00;10.60;;;;;;;17.12;58.97;99742.00;104979;1290;25394;-90
2022/09/05 19:08:48;;;;;;;;;;;;;;;;;;;;;
2022/09/05 19:11:35;;;;;;;17.70;8.30;;;;;;;16.76;58.91;99745.80;104852;1287;22554;-90
2022/09/05 19:14:14;;;;;;;15.90;7.70;;;;;;;16.63;59.01;99749.29;105372;1278;23644;-89
2022/09/05 19:16:53;;;;;;;16.20;7.40;;;;;;;16.48;59.01;99755.98;105757;1277;22588;-89
2022/09/05 19:20:12;;;;;;;15.20;6.90;;;;;;;16.33;59.12;99757.04;105955;1276;22617;-88
2022/09/05 19:22:52;;;;;;;15.10;6.10;;;;;;;16.21;59.26;99758.27;105690;1278;25288;-87
2022/09/05 19:25:36;;;;;;;15.70;7.00;;;;;;;16.12;59.34;99759.71;105746;1276;22878;-89
2022/09/05 19:28:29;;;;;;;19.10;8.60;;;;;;;16.08;59.47;99760.81;105813;1278;25334;-92
2022/09/05 19:31:23;;;;;;;;;;;;;;;;;;;;;
2022/09/05 19:34:06;;;;;;;14.80;9.00;;;;;;;16.07;59.81;99758.77;106216;1277;24358;-89
2022/09/05 19:37:16;;;;;;;13.90;8.40;;;;;;;16.10;59.76;99757.59;105746;1278;22632;-89
2022/09/05 19:40:03;;;;;;;13.20;6.70;;;;;;;16.08;59.86;99754.73;105331;1284;22613;-89
2022/09/05 19:42:36;;;;;;;15.00;6.60;;;;;;;16.10;60.06;99753.61;105346;1283;25367;-90
2022/09/05 19:45:20;;;;;;;15.50;5.90;;;;;;;16.16;60.03;99748.83;105398;1283;22685;-93
2022/09/05 19:48:46;;;;;;;;;;;;;;;;;;;;;
2022/09/05 19:51:22;;;;;;;13.90;5.50;;;;;;;16.29;60.17;99742.52;105680;1283;25409;-89
2022/09/05 19:54:02;;;;;;;12.90;5.20;;;;;;;16.32;60.20;99738.83;105400;1284;22549;-90
2022/09/05 19:56:50;;;;;;;14.10;5.00;;;;;;;16.36;60.09;99735.98;105238;1283;22828;-88
2022/09/05 20:00:01;;;;;;;13.40;5.40;;;;;;;16.34;59.96;99736.64;105656;1283;22681;-89
2022/09/05 20:02:51;;;;;;;16.50;5.20;;;;;;;16.25;59.90;99738.33;105578;1284;22598;-91
2022/09/05 20:06:13;;;;;;;14.30;4.70;;;;;;;16.13;59.96;99733.58;105464;1284;25363;-89
2022/09/05 20:08:48;;;;;;;13.50;4.60;;;;;;;16.01;59.96;99735.16;105513;1284;22569;-91
2022/09/05 20:11:25;;;;;;;14.00;4.40;;;;;;;15.96;60.13;99734.67;105316;1283;25536;-88
2022/09/05 20:14:21;;;;;;;11.70;4.90;;;;;;;15.94;60.29;99730.84;105499;1278;22560;-92
2022/09/05 20:16:54;;;;;;;12.20;4.80;;;;;;;15.92;60.28;99731.59;105860;1277;24225;-89
2022/09/05 20:19:33;;;;;;;10.70;4.50;;;;;;;15.88;60.29;99733.20;105776;1277;25224;-89
2022/09/05 20:22:07;;;;;;;12.40;4.30;;;;;;;15.79;60.24;99735.02;105837;1277;25306;-87
2022/09/05 20:24:37;;;;;;;12.50;4.40;;;;;;;15.70;60.20;99732.20;105760;1281;22538;-91
2022/09/05 20:27:10;;;;;;;12.40;3.70;;;;;;;15.65;60.24;99731.87;105847;1279;22685;-90
2022/09/05 20:30:01;;;;;;;9.00;3.40;;;;;;;15.62;60.23;99731.96;105966;1277;22622;-91
2022/09/05 20:32:45;;;;;;;8.60;3.10;;;;;;;15.61;60.30;99733.79;105671;1277;22604;-88
2022/09/05 20:35:28;;;;;;;11.40;4.20;;;;;;;15.62;60.46;99734.77;105909;1276;24279;-90
2022/09/05 20:38:01;;;;;;;12.40;4.40;;;;;;;15.62;60.39;99731.05;105712;1277;24098;-90
2022/09/05 20:40:34;;;;;;;10.80;4.40;;;;;;;15.58;60.48;99727.95;105790;1277;25324;-89
2022/09/05 20:43:18;;;;;;;14.20;4.00;;;;;;;15.53;60.45;99728.89;105789;1277;23914;-90
2022/09/05 20:45:57;;;;;;;10.50;4.00;;;;;;;15.49;60.57;99731.92;105762;1277;22566;-90
2022/09/05 20:48:27;;;;;;;12.20;3.90;;;;;;;15.49;60.75;99730.08;105715;1277;22660;-92
2022/09/05 20:51:00;;;;;;;9.30;3.90;;;;;;;15.50;60.87;99725.72;105851;1277;26534;-91
2022/09/05 20:53:31;;;;;;;12.30;4.30;;;;;;;15.48;60.79;99721.23;105741;1277;22587;-89
2022/09/05 20:56:08;;;;;;;14.50;4.80;;;;;;;15.45;60.87;99720.21;105465;1276;25903;-89
2022/09/05 20:58:37;;;;;;;13.30;4.40;;;;;;;15.45;61.04;99718.98;105715;1277;22550;-89
2022/09/05 21:01:16;;;;;;;11.10;4.00;;;;;;;15.43;60.90;99713.91;105885;1277;22534;-90
2022/09/05 21:04:01;;;;;;;10.50;3.90;;;;;;;15.42;60.95;99715.42;105872;1277;24199;-89
2022/09/05 21:06:35;;;;;;;11.60;4.40;;;;;;;15.41;61.08;99713.88;106061;1277;23191;-89
2022/09/05 21:09:19;;;;;;;11.90;3.90;;;;;;;15.41;61.15;99715.66;105874;1277;25353;-90
2022/09/05 21:11:54;;;;;;;10.90;4.10;;;;;;;15.42;61.22;99717.59;105858;1275;22593;-91
2022/09/05 21:14:40;;;;;;;10.20;3.60;;;;;;;15.43;61.16;99716.84;105884;1277;22677;-90
2022/09/05 21:17:16;;;;;;;8.80;3.30;;;;;;;15.40;61.20;99715.38;105782;1277;22717;-91
2022/09/05 21:19:59;;;;;;;9.00;3.80;;;;;;;15.38;61.27;99716.05;105784;1277;24337;-87
2022/09/05 21:22:40;;;;;;;12.10;4.50;;;;;;;15.31;61.07;99722.45;106038;1278;23944;-90
2022/09/05 21:25:46;;;;;;;11.90;4.10;;;;;;;15.25;61.22;99726.52;105765;1278;25359;-90